Time;durP1;ratioP1;P1;durP2;ratioP2;P2;SDS_P1;SDS_P2;PMS_P1;PMS_P2;Temp;Humidity;BMP_temperature;BMP_pressure;BME280_temperature;BME280_humidity;BME280_pressure;Samples;Min_cycle;Max_cycle;Signal;HPM_P1;HPM_P2
2023/12/31 00:04:49;;;;;;;18.75;16.55;;;;;;;5.04;100.00;100635.69;12606350;22;20020;-70
2023/12/31 00:09:46;;;;;;;21.85;16.95;;;;;;;4.96;100.00;100628.94;12631853;23;20091;-70
2023/12/31 00:14:42;;;;;;;18.85;15.98;;;;;;;4.90;100.00;100623.84;12633225;23;20029;-70
2023/12/31 00:19:39;;;;;;;16.85;15.07;;;;;;;4.83;100.00;100619.56;12627977;23;20071;-71
2023/12/31 00:24:35;;;;;;;15.23;13.80;;;;;;;4.77;100.00;100612.56;12634165;23;20029;-72
2023/12/31 00:29:32;;;;;;;21.00;15.57;;;;;;;4.71;100.00;100612.88;12633275;23;20096;-72
2023/12/31 00:34:28;;;;;;;22.58;16.25;;;;;;;4.69;100.00;100620.47;12633352;23;20032;-72
2023/12/31 00:39:25;;;;;;;19.08;15.20;;;;;;;4.70;100.00;100609.34;12633717;23;20016;-71
2023/12/31 00:44:22;;;;;;;19.45;15.35;;;;;;;4.69;100.00;100596.09;12634358;23;20029;-71
2023/12/31 00:49:18;;;;;;;18.33;16.25;;;;;;;4.67;100.00;100593.69;12634666;23;20025;-70
2023/12/31 00:54:15;;;;;;;19.83;15.45;;;;;;;4.68;100.00;100589.88;12633117;23;20028;-71
2023/12/31 00:59:11;;;;;;;21.60;15.02;;;;;;;4.75;100.00;100595.78;12635004;23;20071;-71
2023/12/31 01:04:08;;;;;;;15.70;14.10;;;;;;;4.84;100.00;100583.25;12634313;23;20032;-71
2023/12/31 01:09:06;;;;;;;15.43;13.82;;;;;;;4.90;100.00;100583.19;12632186;23;20021;-71
2023/12/31 01:14:03;;;;;;;17.33;15.07;;;;;;;4.90;100.00;100575.06;12633358;23;20028;-72
2023/12/31 01:18:59;;;;;;;17.55;14.73;;;;;;;4.92;100.00;100578.31;12627751;23;20398;-71
2023/12/31 01:23:56;;;;;;;16.98;15.35;;;;;;;4.90;100.00;100580.50;12625329;23;20047;-70
2023/12/31 01:28:52;;;;;;;15.48;14.00;;;;;;;4.92;100.00;100575.59;12637182;23;20028;-71
2023/12/31 01:33:50;;;;;;;18.63;14.40;;;;;;;4.92;100.00;100568.31;12636951;23;20039;-71
2023/12/31 01:38:47;;;;;;;20.67;13.50;;;;;;;4.93;100.00;100574.53;12635074;23;20103;-70
2023/12/31 01:43:43;;;;;;;17.42;12.80;;;;;;;4.93;100.00;100574.53;12633691;23;20350;-71
2023/12/31 01:48:40;;;;;;;16.25;13.40;;;;;;;5.01;100.00;100571.19;12636376;23;20076;-71
2023/12/31 01:53:37;;;;;;;13.65;12.45;;;;;;;5.10;100.00;100580.31;12635814;23;20024;-70
2023/12/31 01:58:33;;;;;;;14.95;12.95;;;;;;;5.21;100.00;100572.94;12637760;23;20031;-70
2023/12/31 02:03:30;;;;;;;18.20;12.68;;;;;;;5.13;100.00;100563.53;12636698;23;20028;-71
2023/12/31 02:08:47;;;;;;;15.18;12.55;;;;;;;5.18;100.00;100570.78;12635071;22;20024;-71
2023/12/31 02:13:44;;;;;;;14.02;12.60;;;;;;;5.28;100.00;100578.81;12636273;23;20027;-71
2023/12/31 02:18:42;;;;;;;13.85;12.35;;;;;;;5.32;100.00;100573.66;12637253;23;20055;-71
2023/12/31 02:23:38;;;;;;;14.80;13.30;;;;;;;5.41;100.00;100566.50;12590779;22;20120;-71
2023/12/31 02:28:35;;;;;;;16.15;12.57;;;;;;;5.43;100.00;100556.16;12569150;23;20021;-71
2023/12/31 02:33:32;;;;;;;16.70;12.98;;;;;;;5.44;100.00;100557.78;12576026;23;20040;-71
2023/12/31 02:38:29;;;;;;;13.73;12.52;;;;;;;5.45;100.00;100559.41;12573940;23;20028;-72
2023/12/31 02:43:26;;;;;;;12.80;11.52;;;;;;;5.44;100.00;100552.38;12576846;23;20031;-72
2023/12/31 02:48:22;;;;;;;13.38;11.05;;;;;;;5.42;100.00;100554.56;12550590;23;20025;-72
2023/12/31 02:53:19;;;;;;;13.07;11.77;;;;;;;5.40;100.00;100552.13;12570177;23;20025;-72
2023/12/31 02:58:15;;;;;;;12.35;11.00;;;;;;;5.44;100.00;100549.66;12575403;23;20091;-71
2023/12/31 03:03:12;;;;;;;12.52;11.38;;;;;;;5.50;100.00;100545.81;12547547;23;20029;-70
2023/12/31 03:08:08;;;;;;;14.10;11.45;;;;;;;5.52;100.00;100543.59;12573729;23;20102;-72
2023/12/31 03:13:05;;;;;;;11.85;10.90;;;;;;;5.53;100.00;100536.28;12573065;23;20085;-72
2023/12/31 03:18:02;;;;;;;12.70;11.38;;;;;;;5.51;100.00;100536.56;12566240;23;20115;-69
2023/12/31 03:22:58;;;;;;;11.93;10.90;;;;;;;5.59;100.00;100538.66;12573599;23;20352;-70
2023/12/31 03:27:55;;;;;;;12.63;10.55;;;;;;;5.59;100.00;100533.22;12549239;23;20076;-69
2023/12/31 03:32:52;;;;;;;12.90;11.45;;;;;;;5.56;100.00;100536.50;12573940;23;20084;-70
2023/12/31 03:37:49;;;;;;;12.27;11.13;;;;;;;5.54;100.00;100519.69;12567139;23;20097;-71
2023/12/31 03:42:45;;;;;;;11.85;10.90;;;;;;;5.58;100.00;100509.91;12548031;23;20064;-71
2023/12/31 03:47:42;;;;;;;12.57;11.20;;;;;;;5.61;100.00;100501.16;12573347;23;20025;-70
2023/12/31 03:52:38;;;;;;;12.00;11.07;;;;;;;5.62;100.00;100489.25;12570857;23;20025;-70
2023/12/31 03:57:35;;;;;;;15.52;11.60;;;;;;;5.59;100.00;100489.84;12573647;23;20474;-71
2023/12/31 04:02:32;;;;;;;15.68;11.40;;;;;;;5.61;100.00;100465.91;12572486;23;20029;-71
2023/12/31 04:07:52;;;;;;;12.32;11.07;;;;;;;5.61;100.00;100465.91;12570614;23;20021;-70
2023/12/31 04:12:49;;;;;;;12.18;10.90;;;;;;;5.60;100.00;100458.88;12574122;23;20032;-70
2023/12/31 04:17:45;;;;;;;11.23;10.38;;;;;;;5.65;100.00;100464.25;12573678;23;20079;-70
2023/12/31 04:22:42;;;;;;;11.63;10.63;;;;;;;5.65;100.00;100456.09;12605255;23;20438;-70
2023/12/31 04:27:40;;;;;;;12.43;11.15;;;;;;;5.65;100.00;100444.44;12635080;23;20016;-71
2023/12/31 04:32:37;;;;;;;12.65;11.00;;;;;;;5.64;100.00;100457.22;12633552;23;20070;-70
2023/12/31 04:37:34;;;;;;;13.90;11.05;;;;;;;5.57;100.00;100431.53;12633887;23;20075;-70
2023/12/31 04:42:31;;;;;;;11.85;10.65;;;;;;;5.52;100.00;100424.25;12633762;23;20099;-70
2023/12/31 04:47:27;;;;;;;11.68;10.65;;;;;;;5.50;100.00;100415.63;12628877;23;20067;-70
2023/12/31 04:52:24;;;;;;;12.00;11.00;;;;;;;5.43;100.00;100404.31;12633814;23;20024;-72
2023/12/31 04:57:20;;;;;;;16.50;10.65;;;;;;;5.47;100.00;100394.50;12634488;23;20035;-71
2023/12/31 05:02:17;;;;;;;11.63;10.75;;;;;;;5.50;100.00;100383.09;12637920;23;20028;-72
2023/12/31 05:07:14;;;;;;;12.00;10.82;;;;;;;5.49;100.00;100368.72;12636884;23;20406;-73
2023/12/31 05:12:10;;;;;;;14.30;11.55;;;;;;;5.47;100.00;100345.69;12637185;23;20044;-70
2023/12/31 05:23:04;;;;;;;12.27;11.20;;;;;;;5.42;100.00;100322.16;12509980;23;20028;-72
2023/12/31 05:34:02;;;;;;;12.73;11.57;;;;;;;5.46;100.00;100290.66;12634876;23;20024;-71
2023/12/31 05:39:22;;;;;;;11.65;10.60;;;;;;;5.49;100.00;100287.34;12566790;23;20100;-70
2023/12/31 05:44:19;;;;;;;12.32;11.02;;;;;;;5.53;100.00;100276.75;12637236;23;20035;-71
2023/12/31 05:49:15;;;;;;;16.65;10.93;;;;;;;5.59;100.00;100262.00;12637486;23;20501;-73
2023/12/31 05:54:12;;;;;;;13.27;11.50;;;;;;;5.54;100.00;100270.19;12630033;23;20024;-71
2023/12/31 05:59:09;;;;;;;12.38;11.27;;;;;;;5.67;100.00;100264.03;12637136;23;20082;-71
2023/12/31 06:04:06;;;;;;;12.27;11.13;;;;;;;5.66;100.00;100235.31;12637001;23;20347;-71
2023/12/31 06:09:03;;;;;;;12.15;11.02;;;;;;;5.60;100.00;100241.13;12636132;23;20021;-71
2023/12/31 06:14:02;;;;;;;12.77;11.75;;;;;;;5.50;100.00;100225.81;12636748;23;20074;-71
2023/12/31 06:18:59;;;;;;;12.48;11.32;;;;;;;5.34;100.00;100216.28;12630176;23;20020;-70
2023/12/31 06:23:55;;;;;;;12.48;11.50;;;;;;;5.19;100.00;100204.59;12634970;23;20032;-70
2023/12/31 06:28:52;;;;;;;12.57;11.48;;;;;;;5.13;100.00;100203.06;12636417;23;20079;-70
2023/12/31 06:33:48;;;;;;;12.15;11.35;;;;;;;5.15;100.00;100210.88;12636881;23;20350;-70
2023/12/31 06:38:45;;;;;;;13.00;11.70;;;;;;;5.10;100.00;100206.34;12608414;23;20028;-70
2023/12/31 06:43:41;;;;;;;12.18;11.18;;;;;;;5.13;100.00;100203.06;12635539;23;20027;-70
2023/12/31 06:48:38;;;;;;;12.27;11.18;;;;;;;5.14;100.00;100204.66;12636196;23;20112;-70
2023/12/31 06:53:34;;;;;;;13.48;12.05;;;;;;;5.11;100.00;100186.28;12634002;23;20029;-71
2023/12/31 06:58:34;;;;;;;12.82;11.63;;;;;;;5.09;100.00;100183.06;12634751;23;20570;-71
2023/12/31 07:03:31;;;;;;;13.30;11.98;;;;;;;5.08;100.00;100170.59;12634245;23;20563;-71
2023/12/31 07:08:27;;;;;;;12.57;11.38;;;;;;;5.05;100.00;100172.00;12629219;23;20354;-72
2023/12/31 07:13:24;;;;;;;13.23;12.05;;;;;;;5.03;100.00;100165.25;12633749;23;20032;-71
2023/12/31 07:18:20;;;;;;;12.18;11.30;;;;;;;4.99;100.00;100161.53;12628538;23;20497;-69
2023/12/31 07:23:17;;;;;;;12.40;11.50;;;;;;;4.90;100.00;100158.69;12634662;23;20031;-71
2023/12/31 07:28:13;;;;;;;12.15;11.23;;;;;;;4.85;100.00;100146.03;12634035;23;20024;-69
2023/12/31 07:33:10;;;;;;;13.45;12.35;;;;;;;4.77;100.00;100143.97;12633660;23;20066;-70
2023/12/31 07:38:08;;;;;;;12.85;11.30;;;;;;;4.78;100.00;100145.59;12634369;23;20304;-70
2023/12/31 07:43:04;;;;;;;12.40;11.40;;;;;;;4.76;100.00;100144.28;12633280;23;20099;-70
2023/12/31 07:48:02;;;;;;;12.43;11.32;;;;;;;4.70;100.00;100135.41;12633455;23;20031;-70
2023/12/31 07:52:59;;;;;;;12.45;11.50;;;;;;;4.69;100.00;100127.56;12633300;23;20462;-71
2023/12/31 07:57:55;;;;;;;12.25;11.27;;;;;;;4.62;100.00;100122.53;12628550;23;20028;-71
2023/12/31 08:02:52;;;;;;;12.07;10.90;;;;;;;4.60;100.00;100105.78;12630822;23;20067;-72
2023/12/31 08:07:48;;;;;;;12.18;11.15;;;;;;;4.57;100.00;100096.34;12620912;23;20025;-71
2023/12/31 08:12:45;;;;;;;12.73;11.38;;;;;;;4.65;100.00;100097.56;12631736;23;20035;-72
2023/12/31 08:22:53;;;;;;;15.35;11.25;;;;;;;4.80;100.00;100072.97;12646662;22;20016;-71
2023/12/31 08:27:50;;;;;;;12.68;11.50;;;;;;;4.85;100.00;100070.19;12622898;23;20029;-72
2023/12/31 08:32:46;;;;;;;12.75;11.52;;;;;;;4.84;100.00;100057.72;12629276;23;20035;-74
2023/12/31 08:43:35;;;;;;;12.35;11.25;;;;;;;4.94;100.00;100066.78;12630093;23;20024;-74
2023/12/31 09:11:45;;;;;;;11.95;10.80;;;;;;;5.40;100.00;100063.28;12569796;23;20107;-73
2023/12/31 09:16:41;;;;;;;11.90;10.77;;;;;;;5.39;100.00;100078.75;12571017;23;20026;-75
2023/12/31 09:21:38;;;;;;;12.00;10.90;;;;;;;5.43;100.00;100095.22;12548742;23;20597;-75
2023/12/31 09:26:34;;;;;;;11.38;10.52;;;;;;;5.51;100.00;100086.41;12573843;23;20021;-74
2023/12/31 09:31:31;;;;;;;13.32;10.05;;;;;;;5.55;100.00;100082.00;12573784;23;20024;-75
2023/12/31 09:36:27;;;;;;;10.88;9.93;;;;;;;5.62;100.00;100076.97;12568218;23;20108;-75
2023/12/31 09:41:24;;;;;;;13.02;9.98;;;;;;;5.68;100.00;100081.19;12566173;23;20029;-75
2023/12/31 09:46:21;;;;;;;11.63;10.10;;;;;;;5.73;100.00;100087.63;12581797;23;20052;-73
2023/12/31 09:51:18;;;;;;;10.93;9.93;;;;;;;5.73;100.00;100074.88;12572247;23;20025;-73
2023/12/31 09:56:17;;;;;;;10.70;9.70;;;;;;;5.81;100.00;100073.38;12563623;23;20025;-75
2023/12/31 10:06:29;;;;;;;10.90;9.60;;;;;;;5.88;100.00;100052.06;12574758;23;20021;-75
2023/12/31 10:11:25;;;;;;;10.27;9.50;;;;;;;5.91;100.00;100048.75;12569124;23;20482;-75
2023/12/31 10:16:22;;;;;;;10.68;9.30;;;;;;;5.93;100.00;100043.81;12544269;23;20104;-75
2023/12/31 10:21:19;;;;;;;9.82;9.02;;;;;;;5.97;100.00;100038.63;12569443;23;20104;-75
2023/12/31 10:26:15;;;;;;;10.63;9.27;;;;;;;5.96;100.00;100032.38;12571099;23;20475;-75
2023/12/31 10:43:23;;;;;;;;;;;;;;;;;;;;;
2023/12/31 10:49:08;;;;;;;;;;;;;;;;;;;;;
2023/12/31 10:55:16;;;;;;;;;;;;;;;;;;;;;
2023/12/31 11:19:17;;;;;;;11.20;10.13;;;;;;;5.97;100.00;99902.97;12568690;23;20028;-71
2023/12/31 11:24:18;;;;;;;10.43;9.55;;;;;;;6.02;100.00;99895.50;12568510;23;20020;-73
2023/12/31 11:29:15;;;;;;;10.93;10.15;;;;;;;6.13;100.00;99889.81;12517385;23;20033;-72
2023/12/31 11:34:11;;;;;;;10.48;9.57;;;;;;;6.23;100.00;99873.28;12507229;23;20029;-74
2023/12/31 11:44:37;;;;;;;10.65;8.88;;;;;;;6.47;100.00;99862.88;12624411;23;20052;-73
2023/12/31 12:57:24;;;;;;;9.70;8.57;;;;;;;6.77;100.00;99822.44;12565654;23;20530;-72
2023/12/31 13:02:21;;;;;;;9.90;8.77;;;;;;;6.77;100.00;99806.16;12583962;23;20079;-72
2023/12/31 13:34:23;;;;;;;10.35;9.55;;;;;;;6.70;100.00;99773.19;12617660;23;20029;-74
2023/12/31 13:39:19;;;;;;;10.13;9.23;;;;;;;6.71;100.00;99772.09;12634429;23;20027;-74
2023/12/31 13:44:16;;;;;;;11.02;9.88;;;;;;;6.67;100.00;99769.19;12609372;23;20063;-73
2023/12/31 14:05:30;;;;;;;13.93;12.43;;;;;;;6.66;100.00;99750.50;12624505;22;20450;-76
2023/12/31 14:11:10;;;;;;;11.43;10.55;;;;;;;6.64;100.00;99737.25;12607853;22;20066;-74
2023/12/31 14:16:07;;;;;;;13.15;11.85;;;;;;;6.61;100.00;99737.06;12630511;23;20025;-75
2023/12/31 14:21:04;;;;;;;11.68;10.55;;;;;;;6.67;100.00;99733.09;12642715;22;20481;-72
2023/12/31 14:26:00;;;;;;;11.48;10.50;;;;;;;6.69;100.00;99739.03;12694119;23;20082;-70
2023/12/31 14:30:57;;;;;;;11.07;10.18;;;;;;;6.65;100.00;99727.19;12694238;22;20027;-70
2023/12/31 14:35:54;;;;;;;11.70;10.70;;;;;;;6.68;100.00;99719.22;12696503;23;20056;-70
2023/12/31 14:40:50;;;;;;;10.45;9.65;;;;;;;6.67;100.00;99727.66;12666648;23;20039;-71
2023/12/31 14:45:47;;;;;;;9.93;9.07;;;;;;;6.66;100.00;99739.63;12695200;23;20031;-72
2023/12/31 14:50:49;;;;;;;10.98;10.10;;;;;;;6.63;100.00;99735.63;12698009;22;20028;-72
2023/12/31 14:55:46;;;;;;;10.98;10.07;;;;;;;6.64;100.00;99736.44;12696606;23;20047;-71
2023/12/31 15:00:43;;;;;;;10.77;9.90;;;;;;;6.61;100.00;99737.06;12696377;22;20034;-72
2023/12/31 15:05:39;;;;;;;19.58;17.63;;;;;;;6.60;100.00;99732.75;12691460;23;20409;-72
2023/12/31 15:10:38;;;;;;;12.93;11.38;;;;;;;6.57;100.00;99725.22;12697023;22;20032;-72
2023/12/31 15:15:35;;;;;;;12.63;11.52;;;;;;;6.57;100.00;99712.47;12696936;23;20052;-72
2023/12/31 15:20:32;;;;;;;14.80;12.98;;;;;;;6.53;100.00;99720.44;12690424;22;20024;-72
2023/12/31 15:25:29;;;;;;;13.40;12.02;;;;;;;6.54;100.00;99721.22;12692485;23;20032;-72
2023/12/31 15:30:25;;;;;;;12.15;11.15;;;;;;;6.52;100.00;99729.69;12663138;23;20094;-74
2023/12/31 15:35:22;;;;;;;13.20;11.90;;;;;;;6.53;100.00;99725.88;12692032;23;20542;-73
2023/12/31 15:46:11;;;;;;;12.32;11.18;;;;;;;6.52;100.00;99724.28;12638535;22;20020;-73
2023/12/31 15:51:13;;;;;;;35.13;26.88;;;;;;;6.56;100.00;99707.34;12609546;23;20578;-73
2023/12/31 15:56:11;;;;;;;19.58;17.70;;;;;;;6.56;100.00;99716.28;12566827;23;20087;-74
2023/12/31 16:01:09;;;;;;;13.38;11.75;;;;;;;6.58;100.00;99713.25;12539745;23;20033;-73
2023/12/31 16:06:06;;;;;;;14.68;13.38;;;;;;;6.58;100.00;99718.69;12566267;23;20035;-73
2023/12/31 16:11:06;;;;;;;20.10;14.00;;;;;;;6.60;100.00;99727.31;12563133;23;20029;-73
2023/12/31 16:16:03;;;;;;;13.77;12.27;;;;;;;6.65;100.00;99732.59;12567482;23;20021;-73
2023/12/31 16:45:08;;;;;;;;;;;;;;;;;;;;;
2023/12/31 17:02:59;;;;;;;;;;;;;;;;;;;;;
2023/12/31 17:15:30;;;;;;;;;;;;;;;;;;;;;
2023/12/31 17:20:47;;;;;;;30.30;23.17;;;;;;;6.36;100.00;99662.53;12314530;23;20033;-71
2023/12/31 17:25:44;;;;;;;31.25;23.92;;;;;;;6.38;100.00;99652.16;12590867;23;20100;-72
2023/12/31 17:30:40;;;;;;;30.02;21.92;;;;;;;6.35;100.00;99669.91;12633666;23;20029;-74
2023/12/31 17:35:38;;;;;;;27.85;24.30;;;;;;;6.33;100.00;99677.56;12630135;23;20514;-74
2023/12/31 17:40:34;;;;;;;29.70;25.00;;;;;;;6.34;100.00;99673.75;12635819;23;20024;-73
2023/12/31 17:45:32;;;;;;;34.30;26.17;;;;;;;6.35;100.00;99669.91;12634386;23;20020;-72
2023/12/31 18:04:41;;;;;;;;;;;;;;;;;;;;;
2023/12/31 18:10:00;;;;;;;33.33;28.02;;;;;;;6.22;100.00;99673.53;12469938;23;20104;-72
2023/12/31 18:14:57;;;;;;;27.00;22.05;;;;;;;6.34;100.00;99684.59;12512531;23;20332;-70
2023/12/31 18:25:34;;;;;;;21.58;19.40;;;;;;;6.35;100.00;99688.91;12569487;23;20021;-74
2023/12/31 18:30:30;;;;;;;22.95;19.05;;;;;;;6.36;100.00;99693.22;12573367;23;20016;-74
2023/12/31 18:35:36;;;;;;;18.73;16.63;;;;;;;6.38;100.00;99706.47;12576545;23;20024;-74
2023/12/31 18:40:33;;;;;;;17.90;15.93;;;;;;;6.37;100.00;99721.97;12635802;23;20036;-73
2023/12/31 18:45:30;;;;;;;16.73;15.32;;;;;;;6.35;100.00;99721.47;12628384;22;20420;-73
2023/12/31 18:50:27;;;;;;;26.27;23.63;;;;;;;6.30;100.00;99735.19;12635035;23;20093;-74
2023/12/31 18:55:24;;;;;;;15.60;13.93;;;;;;;6.27;100.00;99749.41;12634537;23;20020;-74
2023/12/31 19:00:23;;;;;;;22.88;20.67;;;;;;;6.23;100.00;99764.72;12634417;23;20025;-72
2023/12/31 19:05:19;;;;;;;18.75;14.85;;;;;;;6.25;100.00;99762.50;12634449;23;20804;-73
2023/12/31 19:10:18;;;;;;;100.25;69.85;;;;;;;6.20;100.00;99777.00;12634478;23;20016;-73
2023/12/31 19:15:16;;;;;;;36.58;25.45;;;;;;;6.15;100.00;99779.03;12635005;23;20097;-72
2023/12/31 19:20:12;;;;;;;21.10;17.70;;;;;;;6.21;100.00;99799.50;12634298;23;20020;-73
2023/12/31 19:25:09;;;;;;;46.17;36.83;;;;;;;6.18;100.00;99811.00;12634442;23;20025;-73
2023/12/31 19:30:07;;;;;;;34.55;25.63;;;;;;;6.13;100.00;99820.06;12632618;23;20028;-72
2023/12/31 19:35:04;;;;;;;26.35;20.50;;;;;;;6.14;100.00;99834.44;12632154;23;20025;-73
2023/12/31 19:40:01;;;;;;;23.05;19.23;;;;;;;6.16;100.00;99845.78;12634380;23;20380;-74
2023/12/31 19:44:57;;;;;;;18.13;16.33;;;;;;;6.06;100.00;99836.78;12635278;23;20020;-73
2023/12/31 19:49:54;;;;;;;18.35;16.42;;;;;;;6.02;100.00;99841.22;12627287;23;20020;-73
2023/12/31 19:54:55;;;;;;;22.38;18.02;;;;;;;5.97;100.00;99844.06;12627039;23;20427;-73
2023/12/31 19:59:51;;;;;;;22.77;18.10;;;;;;;5.93;100.00;99843.03;12633663;23;20025;-73
2023/12/31 20:04:48;;;;;;;24.58;19.90;;;;;;;5.93;100.00;99840.31;12634106;23;20035;-73
2023/12/31 20:09:45;;;;;;;40.60;32.55;;;;;;;5.94;100.00;99838.41;12632127;23;20128;-73
2023/12/31 20:14:42;;;;;;;34.75;27.30;;;;;;;5.96;100.00;99842.44;12632761;23;20024;-73
2023/12/31 20:19:39;;;;;;;34.22;24.92;;;;;;;5.94;100.00;99844.69;12632913;23;20024;-73
2023/12/31 20:24:35;;;;;;;29.33;24.42;;;;;;;5.83;100.00;99837.88;12632288;23;20027;-73
2023/12/31 20:35:36;;;;;;;28.27;22.93;;;;;;;5.90;100.00;99851.81;12630300;23;20031;-73
2023/12/31 20:40:33;;;;;;;31.17;20.55;;;;;;;5.97;100.00;99845.97;12627186;23;20618;-72
2023/12/31 20:45:29;;;;;;;30.92;22.90;;;;;;;5.95;100.00;99851.69;12572117;23;20363;-73
2023/12/31 20:50:26;;;;;;;27.67;24.63;;;;;;;6.01;100.00;99855.09;12566230;23;20029;-73
2023/12/31 20:55:23;;;;;;;197.18;117.65;;;;;;;5.99;100.00;99858.13;12572260;23;20080;-73
2023/12/31 21:00:20;;;;;;;28.60;22.08;;;;;;;5.98;100.00;99878.22;12570737;23;20021;-73
2023/12/31 21:05:17;;;;;;;32.05;22.27;;;;;;;6.04;100.00;99877.00;12565314;23;20084;-73
2023/12/31 21:10:13;;;;;;;38.03;26.95;;;;;;;5.89;100.00;99863.75;12569590;23;20025;-72
2023/12/31 21:15:10;;;;;;;62.45;39.08;;;;;;;5.70;100.00;99843.00;12570533;23;20025;-73
2023/12/31 21:20:08;;;;;;;39.35;25.90;;;;;;;5.61;100.00;99831.28;12571252;23;20028;-73
2023/12/31 21:25:05;;;;;;;45.78;29.08;;;;;;;5.38;100.00;99826.94;12570226;23;20347;-72
2023/12/31 21:30:01;;;;;;;36.45;25.27;;;;;;;5.27;100.00;99827.16;12571230;23;20403;-73
2023/12/31 21:34:58;;;;;;;28.25;24.33;;;;;;;5.37;100.00;99814.50;12630754;23;20099;-73
2023/12/31 21:39:54;;;;;;;38.28;29.35;;;;;;;5.42;100.00;99811.66;12631558;23;20029;-73
2023/12/31 21:44:51;;;;;;;39.70;30.13;;;;;;;5.43;100.00;99814.09;12637111;23;20028;-73
2023/12/31 21:49:47;;;;;;;27.63;22.35;;;;;;;5.41;100.00;99812.78;12634456;23;20025;-73
2023/12/31 21:54:44;;;;;;;28.20;21.95;;;;;;;5.34;100.00;99815.09;12630635;23;20028;-73
2023/12/31 22:11:00;;;;;;;191.77;111.30;;;;;;;5.32;100.00;99811.91;12619456;22;20024;-71
2023/12/31 22:15:57;;;;;;;44.63;30.10;;;;;;;5.22;100.00;99813.72;12689880;23;20028;-73
2023/12/31 22:20:56;;;;;;;25.10;20.25;;;;;;;5.28;100.00;99809.78;12697085;22;20103;-72
2023/12/31 22:25:52;;;;;;;36.40;30.83;;;;;;;5.32;100.00;99817.31;12697171;23;20035;-73
2023/12/31 22:30:50;;;;;;;28.20;22.08;;;;;;;5.30;100.00;99819.53;12692601;22;20505;-73
2023/12/31 22:35:47;;;;;;;23.90;21.25;;;;;;;5.36;100.00;99821.00;12696062;23;20020;-73
2023/12/31 22:40:43;;;;;;;138.68;96.13;;;;;;;5.43;100.00;99834.94;12697536;22;20486;-73
2023/12/31 22:45:40;;;;;;;26.55;21.23;;;;;;;5.49;100.00;99833.75;12670714;23;20474;-73
2023/12/31 22:50:37;;;;;;;33.50;21.88;;;;;;;5.37;100.00;99847.03;12695117;22;20032;-73
2023/12/31 22:55:33;;;;;;;31.55;23.67;;;;;;;5.31;100.00;99842.81;12694672;23;20036;-72
2023/12/31 23:00:30;;;;;;;72.78;47.58;;;;;;;5.37;100.00;99844.31;12689212;22;20020;-73
2023/12/31 23:05:29;;;;;;;176.77;110.00;;;;;;;5.21;100.00;99844.63;12695559;23;20090;-73
2023/12/31 23:10:29;;;;;;;204.77;124.32;;;;;;;5.24;100.00;99857.59;12694308;22;20335;-72
2023/12/31 23:15:26;;;;;;;283.95;168.35;;;;;;;5.23;100.00;99853.25;12694223;23;20026;-72
2023/12/31 23:20:23;;;;;;;231.85;142.15;;;;;;;5.23;100.00;99852.47;12666330;23;20485;-72
2023/12/31 23:25:19;;;;;;;178.32;116.10;;;;;;;5.25;100.00;99856.47;12691197;23;20027;-73
2023/12/31 23:30:16;;;;;;;228.40;136.98;;;;;;;5.28;100.00;99855.06;12693463;22;20079;-72
2023/12/31 23:35:12;;;;;;;179.02;112.47;;;;;;;5.25;100.00;99859.19;12695894;23;20058;-72
2023/12/31 23:40:09;;;;;;;191.48;115.53;;;;;;;5.12;100.00;99867.31;12656951;22;20028;-79
2023/12/31 23:45:09;;;;;;;217.07;132.57;;;;;;;5.05;100.00;99862.31;12546797;23;20056;-79
2023/12/31 23:50:07;;;;;;;194.10;115.68;;;;;;;5.03;100.00;99867.22;12569355;23;20052;-80
2023/12/31 23:55:07;;;;;;;177.02;107.45;;;;;;;4.98;100.00;99859.19;12629436;23;20028;-79
